sensor_id;sensor_type;location;lat;lon;timestamp;temperature;humidity
24152;DHT22;12311;50.866;4.332;2023-08-31T00:00:30;12.50;99.90
24152;DHT22;12311;50.866;4.332;2023-08-31T00:02:57;12.50;99.90
24152;DHT22;12311;50.866;4.332;2023-08-31T00:05:23;12.40;99.90
24152;DHT22;12311;50.866;4.332;2023-08-31T00:07:50;12.50;99.90
24152;DHT22;12311;50.866;4.332;2023-08-31T00:10:16;12.50;99.90
24152;DHT22;12311;50.866;4.332;2023-08-31T00:12:43;12.40;99.90
24152;DHT22;12311;50.866;4.332;2023-08-31T00:15:10;12.50;99.90
24152;DHT22;12311;50.866;4.332;2023-08-31T00:17:36;12.50;99.90
24152;DHT22;12311;50.866;4.332;2023-08-31T00:20:04;12.50;99.90
24152;DHT22;12311;50.866;4.332;2023-08-31T00:22:31;12.50;99.90
24152;DHT22;12311;50.866;4.332;2023-08-31T00:24:58;12.50;99.90
24152;DHT22;12311;50.866;4.332;2023-08-31T00:27:24;12.50;99.90
24152;DHT22;12311;50.866;4.332;2023-08-31T00:29:49;12.50;99.90
24152;DHT22;12311;50.866;4.332;2023-08-31T00:32:17;12.60;99.90
24152;DHT22;12311;50.866;4.332;2023-08-31T00:34:44;12.60;99.90
24152;DHT22;12311;50.866;4.332;2023-08-31T00:37:09;12.60;99.90
24152;DHT22;12311;50.866;4.332;2023-08-31T00:39:35;12.60;99.90
24152;DHT22;12311;50.866;4.332;2023-08-31T00:42:01;12.70;99.90
24152;DHT22;12311;50.866;4.332;2023-08-31T00:44:26;12.70;99.90
24152;DHT22;12311;50.866;4.332;2023-08-31T00:46:52;12.70;99.90
24152;DHT22;12311;50.866;4.332;2023-08-31T00:49:18;12.70;99.90
24152;DHT22;12311;50.866;4.332;2023-08-31T00:51:45;12.70;99.90
24152;DHT22;12311;50.866;4.332;2023-08-31T00:54:16;12.80;99.90
24152;DHT22;12311;50.866;4.332;2023-08-31T00:56:43;12.70;99.90
24152;DHT22;12311;50.866;4.332;2023-08-31T00:59:08;12.70;99.90
24152;DHT22;12311;50.866;4.332;2023-08-31T01:01:45;12.70;99.90
24152;DHT22;12311;50.866;4.332;2023-08-31T01:12:40;12.70;99.90
24152;DHT22;12311;50.866;4.332;2023-08-31T01:15:13;12.60;99.90
24152;DHT22;12311;50.866;4.332;2023-08-31T01:17:54;12.50;99.90
24152;DHT22;12311;50.866;4.332;2023-08-31T01:20:28;12.60;99.90
24152;DHT22;12311;50.866;4.332;2023-08-31T01:23:04;12.50;99.90
24152;DHT22;12311;50.866;4.332;2023-08-31T01:25:32;12.60;99.90
24152;DHT22;12311;50.866;4.332;2023-08-31T01:27:59;12.60;99.90
24152;DHT22;12311;50.866;4.332;2023-08-31T01:30:28;12.60;99.90
24152;DHT22;12311;50.866;4.332;2023-08-31T01:32:54;12.60;99.90
24152;DHT22;12311;50.866;4.332;2023-08-31T01:35:21;12.60;99.90
24152;DHT22;12311;50.866;4.332;2023-08-31T01:38:07;12.60;99.90
24152;DHT22;12311;50.866;4.332;2023-08-31T01:40:41;12.70;99.90
24152;DHT22;12311;50.866;4.332;2023-08-31T01:43:10;12.70;99.90
24152;DHT22;12311;50.866;4.332;2023-08-31T01:45:37;12.70;99.90
24152;DHT22;12311;50.866;4.332;2023-08-31T01:48:04;12.60;99.90
24152;DHT22;12311;50.866;4.332;2023-08-31T01:50:30;12.60;99.90
24152;DHT22;12311;50.866;4.332;2023-08-31T01:52:55;12.60;99.90
24152;DHT22;12311;50.866;4.332;2023-08-31T01:55:22;12.60;99.90
24152;DHT22;12311;50.866;4.332;2023-08-31T01:57:48;12.60;99.90
24152;DHT22;12311;50.866;4.332;2023-08-31T02:00:14;12.60;99.90
24152;DHT22;12311;50.866;4.332;2023-08-31T02:02:41;12.60;99.90
24152;DHT22;12311;50.866;4.332;2023-08-31T02:05:08;12.60;99.90
24152;DHT22;12311;50.866;4.332;2023-08-31T02:07:34;12.60;99.90
24152;DHT22;12311;50.866;4.332;2023-08-31T02:10:00;12.50;99.90
24152;DHT22;12311;50.866;4.332;2023-08-31T02:12:25;12.60;99.90
24152;DHT22;12311;50.866;4.332;2023-08-31T02:14:51;12.70;99.90
24152;DHT22;12311;50.866;4.332;2023-08-31T02:17:17;12.60;99.90
24152;DHT22;12311;50.866;4.332;2023-08-31T02:19:42;12.70;99.90
24152;DHT22;12311;50.866;4.332;2023-08-31T02:22:08;12.60;99.90
24152;DHT22;12311;50.866;4.332;2023-08-31T02:24:34;12.70;99.90
24152;DHT22;12311;50.866;4.332;2023-08-31T02:27:00;12.60;99.90
24152;DHT22;12311;50.866;4.332;2023-08-31T02:29:25;12.60;99.90
24152;DHT22;12311;50.866;4.332;2023-08-31T02:31:51;12.60;99.90
24152;DHT22;12311;50.866;4.332;2023-08-31T02:34:17;12.60;99.90
24152;DHT22;12311;50.866;4.332;2023-08-31T02:36:42;12.60;99.90
24152;DHT22;12311;50.866;4.332;2023-08-31T02:39:08;12.60;99.90
24152;DHT22;12311;50.866;4.332;2023-08-31T02:41:34;12.70;99.90
24152;DHT22;12311;50.866;4.332;2023-08-31T02:44:00;12.70;99.90
24152;DHT22;12311;50.866;4.332;2023-08-31T02:46:25;12.60;99.90
24152;DHT22;12311;50.866;4.332;2023-08-31T02:48:51;12.60;99.90
24152;DHT22;12311;50.866;4.332;2023-08-31T02:51:17;12.50;99.90
24152;DHT22;12311;50.866;4.332;2023-08-31T02:53:42;12.60;99.90
24152;DHT22;12311;50.866;4.332;2023-08-31T02:56:08;12.60;99.90
24152;DHT22;12311;50.866;4.332;2023-08-31T02:58:34;12.70;99.90
24152;DHT22;12311;50.866;4.332;2023-08-31T03:01:09;12.60;99.90
24152;DHT22;12311;50.866;4.332;2023-08-31T03:03:38;12.70;99.90
24152;DHT22;12311;50.866;4.332;2023-08-31T03:06:06;12.80;99.90
24152;DHT22;12311;50.866;4.332;2023-08-31T03:08:32;12.80;99.90
24152;DHT22;12311;50.866;4.332;2023-08-31T03:10:58;12.70;99.90
24152;DHT22;12311;50.866;4.332;2023-08-31T03:13:24;12.80;99.90
24152;DHT22;12311;50.866;4.332;2023-08-31T03:15:50;12.90;99.90
24152;DHT22;12311;50.866;4.332;2023-08-31T03:18:16;12.80;99.90
24152;DHT22;12311;50.866;4.332;2023-08-31T03:20:41;12.80;99.90
24152;DHT22;12311;50.866;4.332;2023-08-31T03:23:07;12.80;99.90
24152;DHT22;12311;50.866;4.332;2023-08-31T03:25:35;12.70;99.90
24152;DHT22;12311;50.866;4.332;2023-08-31T03:28:00;12.80;99.90
24152;DHT22;12311;50.866;4.332;2023-08-31T03:30:26;12.70;99.90
24152;DHT22;12311;50.866;4.332;2023-08-31T03:32:52;12.70;99.90
24152;DHT22;12311;50.866;4.332;2023-08-31T03:35:17;12.70;99.90
24152;DHT22;12311;50.866;4.332;2023-08-31T03:37:46;12.60;99.90
24152;DHT22;12311;50.866;4.332;2023-08-31T03:40:12;12.70;99.90
24152;DHT22;12311;50.866;4.332;2023-08-31T03:42:37;12.70;99.90
24152;DHT22;12311;50.866;4.332;2023-08-31T03:45:03;12.70;99.90
24152;DHT22;12311;50.866;4.332;2023-08-31T03:47:29;12.80;99.90
24152;DHT22;12311;50.866;4.332;2023-08-31T03:49:56;12.70;99.90
24152;DHT22;12311;50.866;4.332;2023-08-31T03:52:21;12.70;99.90
24152;DHT22;12311;50.866;4.332;2023-08-31T03:54:48;12.70;99.90
24152;DHT22;12311;50.866;4.332;2023-08-31T03:57:14;12.70;99.90
24152;DHT22;12311;50.866;4.332;2023-08-31T03:59:40;12.70;99.90
24152;DHT22;12311;50.866;4.332;2023-08-31T04:02:05;12.70;99.90
24152;DHT22;12311;50.866;4.332;2023-08-31T04:04:31;12.80;99.90
24152;DHT22;12311;50.866;4.332;2023-08-31T04:07:00;12.70;99.90
24152;DHT22;12311;50.866;4.332;2023-08-31T04:09:26;12.70;99.90
24152;DHT22;12311;50.866;4.332;2023-08-31T04:11:51;12.70;99.90
24152;DHT22;12311;50.866;4.332;2023-08-31T04:14:17;12.70;99.90
24152;DHT22;12311;50.866;4.332;2023-08-31T04:16:44;12.60;99.90
24152;DHT22;12311;50.866;4.332;2023-08-31T04:19:10;12.70;99.90
24152;DHT22;12311;50.866;4.332;2023-08-31T04:21:36;12.70;99.90
24152;DHT22;12311;50.866;4.332;2023-08-31T04:24:03;12.70;99.90
24152;DHT22;12311;50.866;4.332;2023-08-31T04:26:29;12.70;99.90
24152;DHT22;12311;50.866;4.332;2023-08-31T04:28:55;12.60;99.90
24152;DHT22;12311;50.866;4.332;2023-08-31T04:31:20;12.60;99.90
24152;DHT22;12311;50.866;4.332;2023-08-31T04:33:46;12.60;99.90
24152;DHT22;12311;50.866;4.332;2023-08-31T04:36:13;12.60;99.90
24152;DHT22;12311;50.866;4.332;2023-08-31T04:38:40;12.60;99.90
24152;DHT22;12311;50.866;4.332;2023-08-31T04:41:06;12.60;99.90
24152;DHT22;12311;50.866;4.332;2023-08-31T04:43:31;12.60;99.90
24152;DHT22;12311;50.866;4.332;2023-08-31T04:45:57;12.50;99.90
24152;DHT22;12311;50.866;4.332;2023-08-31T04:48:23;12.50;99.90
24152;DHT22;12311;50.866;4.332;2023-08-31T04:50:49;12.50;99.90
24152;DHT22;12311;50.866;4.332;2023-08-31T04:53:14;12.50;99.90
24152;DHT22;12311;50.866;4.332;2023-08-31T04:55:40;12.50;99.90
24152;DHT22;12311;50.866;4.332;2023-08-31T04:58:05;12.50;99.90
24152;DHT22;12311;50.866;4.332;2023-08-31T05:00:31;12.40;99.90
24152;DHT22;12311;50.866;4.332;2023-08-31T05:02:57;12.50;99.90
24152;DHT22;12311;50.866;4.332;2023-08-31T05:05:23;12.50;99.90
24152;DHT22;12311;50.866;4.332;2023-08-31T05:07:48;12.50;99.90
24152;DHT22;12311;50.866;4.332;2023-08-31T05:10:14;12.40;99.90
24152;DHT22;12311;50.866;4.332;2023-08-31T05:12:40;12.40;99.90
24152;DHT22;12311;50.866;4.332;2023-08-31T05:15:06;12.40;99.90
24152;DHT22;12311;50.866;4.332;2023-08-31T05:17:32;12.40;99.90
24152;DHT22;12311;50.866;4.332;2023-08-31T05:19:58;12.50;99.90
24152;DHT22;12311;50.866;4.332;2023-08-31T05:22:23;12.60;99.90
24152;DHT22;12311;50.866;4.332;2023-08-31T05:24:49;12.60;99.90
24152;DHT22;12311;50.866;4.332;2023-08-31T05:27:15;12.50;99.90
24152;DHT22;12311;50.866;4.332;2023-08-31T05:29:40;12.50;99.90
24152;DHT22;12311;50.866;4.332;2023-08-31T05:32:06;12.60;99.90
24152;DHT22;12311;50.866;4.332;2023-08-31T05:34:32;12.50;99.90
24152;DHT22;12311;50.866;4.332;2023-08-31T05:37:00;12.50;99.90
24152;DHT22;12311;50.866;4.332;2023-08-31T05:39:25;12.50;99.90
24152;DHT22;12311;50.866;4.332;2023-08-31T05:41:51;12.50;99.90
24152;DHT22;12311;50.866;4.332;2023-08-31T05:44:17;12.60;99.90
24152;DHT22;12311;50.866;4.332;2023-08-31T05:46:42;12.60;99.90
24152;DHT22;12311;50.866;4.332;2023-08-31T05:49:08;12.70;99.90
24152;DHT22;12311;50.866;4.332;2023-08-31T05:51:34;12.60;99.90
24152;DHT22;12311;50.866;4.332;2023-08-31T05:54:00;12.60;99.90
24152;DHT22;12311;50.866;4.332;2023-08-31T05:56:26;12.70;99.90
24152;DHT22;12311;50.866;4.332;2023-08-31T05:58:52;12.70;99.90
24152;DHT22;12311;50.866;4.332;2023-08-31T06:01:20;12.70;99.90
24152;DHT22;12311;50.866;4.332;2023-08-31T06:03:47;12.70;99.90
24152;DHT22;12311;50.866;4.332;2023-08-31T06:06:14;12.70;99.90
24152;DHT22;12311;50.866;4.332;2023-08-31T06:08:39;12.70;99.90
24152;DHT22;12311;50.866;4.332;2023-08-31T06:11:07;12.70;99.90
24152;DHT22;12311;50.866;4.332;2023-08-31T06:13:33;12.80;99.90
24152;DHT22;12311;50.866;4.332;2023-08-31T06:15:59;12.70;99.90
24152;DHT22;12311;50.866;4.332;2023-08-31T06:18:25;12.80;99.90
24152;DHT22;12311;50.866;4.332;2023-08-31T06:20:51;12.80;99.90
24152;DHT22;12311;50.866;4.332;2023-08-31T06:23:17;12.90;99.90
24152;DHT22;12311;50.866;4.332;2023-08-31T06:25:43;12.80;99.90
24152;DHT22;12311;50.866;4.332;2023-08-31T06:28:11;12.90;99.90
24152;DHT22;12311;50.866;4.332;2023-08-31T06:30:37;13.00;99.90
24152;DHT22;12311;50.866;4.332;2023-08-31T06:33:04;13.00;99.90
24152;DHT22;12311;50.866;4.332;2023-08-31T06:35:30;13.00;99.90
24152;DHT22;12311;50.866;4.332;2023-08-31T06:37:56;13.00;99.90
24152;DHT22;12311;50.866;4.332;2023-08-31T06:40:23;13.10;99.90
24152;DHT22;12311;50.866;4.332;2023-08-31T06:42:49;13.20;99.90
24152;DHT22;12311;50.866;4.332;2023-08-31T06:45:15;13.20;99.90
24152;DHT22;12311;50.866;4.332;2023-08-31T06:47:40;13.20;99.90
24152;DHT22;12311;50.866;4.332;2023-08-31T06:50:06;13.40;99.90
24152;DHT22;12311;50.866;4.332;2023-08-31T06:52:32;13.50;99.90
24152;DHT22;12311;50.866;4.332;2023-08-31T06:54:57;13.40;99.90
24152;DHT22;12311;50.866;4.332;2023-08-31T06:57:24;13.50;99.90
24152;DHT22;12311;50.866;4.332;2023-08-31T06:59:50;13.50;99.90
24152;DHT22;12311;50.866;4.332;2023-08-31T07:02:15;13.60;99.90
24152;DHT22;12311;50.866;4.332;2023-08-31T07:04:41;13.70;99.90
24152;DHT22;12311;50.866;4.332;2023-08-31T07:07:08;13.70;99.90
24152;DHT22;12311;50.866;4.332;2023-08-31T07:09:34;13.70;99.90
24152;DHT22;12311;50.866;4.332;2023-08-31T07:12:00;13.80;99.90
24152;DHT22;12311;50.866;4.332;2023-08-31T07:14:29;13.90;99.90
24152;DHT22;12311;50.866;4.332;2023-08-31T07:16:55;14.00;99.90
24152;DHT22;12311;50.866;4.332;2023-08-31T07:19:20;14.20;99.90
24152;DHT22;12311;50.866;4.332;2023-08-31T07:21:46;14.30;99.90
24152;DHT22;12311;50.866;4.332;2023-08-31T07:24:13;14.30;99.90
24152;DHT22;12311;50.866;4.332;2023-08-31T07:26:39;14.30;99.90
24152;DHT22;12311;50.866;4.332;2023-08-31T07:29:04;14.30;99.90
24152;DHT22;12311;50.866;4.332;2023-08-31T07:31:31;14.30;99.90
24152;DHT22;12311;50.866;4.332;2023-08-31T07:33:57;14.40;99.90
24152;DHT22;12311;50.866;4.332;2023-08-31T07:36:22;14.60;99.90
24152;DHT22;12311;50.866;4.332;2023-08-31T07:38:48;14.50;99.90
24152;DHT22;12311;50.866;4.332;2023-08-31T07:41:14;14.50;99.90
24152;DHT22;12311;50.866;4.332;2023-08-31T07:43:39;14.60;99.90
24152;DHT22;12311;50.866;4.332;2023-08-31T07:46:05;14.60;99.90
24152;DHT22;12311;50.866;4.332;2023-08-31T07:48:31;14.60;99.90
24152;DHT22;12311;50.866;4.332;2023-08-31T07:50:56;14.60;99.90
24152;DHT22;12311;50.866;4.332;2023-08-31T07:53:22;14.60;99.90
24152;DHT22;12311;50.866;4.332;2023-08-31T07:55:55;14.60;99.90
24152;DHT22;12311;50.866;4.332;2023-08-31T07:58:22;14.60;99.90
24152;DHT22;12311;50.866;4.332;2023-08-31T08:00:48;14.60;99.90
24152;DHT22;12311;50.866;4.332;2023-08-31T08:03:14;14.70;99.90
24152;DHT22;12311;50.866;4.332;2023-08-31T08:05:40;14.70;99.90
24152;DHT22;12311;50.866;4.332;2023-08-31T08:08:07;14.70;99.90
24152;DHT22;12311;50.866;4.332;2023-08-31T08:10:33;14.70;99.90
24152;DHT22;12311;50.866;4.332;2023-08-31T08:12:58;14.80;99.90
24152;DHT22;12311;50.866;4.332;2023-08-31T08:15:24;15.00;99.90
24152;DHT22;12311;50.866;4.332;2023-08-31T08:17:50;15.00;99.90
24152;DHT22;12311;50.866;4.332;2023-08-31T08:20:16;15.10;99.90
24152;DHT22;12311;50.866;4.332;2023-08-31T08:22:42;15.10;99.90
24152;DHT22;12311;50.866;4.332;2023-08-31T08:25:09;15.30;99.90
24152;DHT22;12311;50.866;4.332;2023-08-31T08:27:34;15.40;99.90
24152;DHT22;12311;50.866;4.332;2023-08-31T08:30:02;15.40;99.90
24152;DHT22;12311;50.866;4.332;2023-08-31T08:32:28;15.40;99.90
24152;DHT22;12311;50.866;4.332;2023-08-31T08:34:54;15.50;99.90
24152;DHT22;12311;50.866;4.332;2023-08-31T08:37:19;15.60;99.90
24152;DHT22;12311;50.866;4.332;2023-08-31T08:39:49;15.70;99.90
24152;DHT22;12311;50.866;4.332;2023-08-31T08:42:17;15.70;99.90
24152;DHT22;12311;50.866;4.332;2023-08-31T08:44:44;15.80;99.90
24152;DHT22;12311;50.866;4.332;2023-08-31T08:47:11;15.80;99.90
24152;DHT22;12311;50.866;4.332;2023-08-31T08:49:38;16.00;99.90
24152;DHT22;12311;50.866;4.332;2023-08-31T08:52:04;16.20;99.90
24152;DHT22;12311;50.866;4.332;2023-08-31T08:54:31;16.20;99.90
24152;DHT22;12311;50.866;4.332;2023-08-31T08:56:57;16.10;99.90
24152;DHT22;12311;50.866;4.332;2023-08-31T08:59:24;16.20;99.90
24152;DHT22;12311;50.866;4.332;2023-08-31T09:01:49;16.30;99.90
24152;DHT22;12311;50.866;4.332;2023-08-31T09:04:15;16.40;99.90
24152;DHT22;12311;50.866;4.332;2023-08-31T09:06:41;16.60;99.90
24152;DHT22;12311;50.866;4.332;2023-08-31T09:09:10;16.60;99.90
24152;DHT22;12311;50.866;4.332;2023-08-31T09:11:36;16.60;99.90
24152;DHT22;12311;50.866;4.332;2023-08-31T09:14:20;16.70;99.90
24152;DHT22;12311;50.866;4.332;2023-08-31T09:16:48;16.60;99.90
24152;DHT22;12311;50.866;4.332;2023-08-31T09:19:22;16.70;99.90
24152;DHT22;12311;50.866;4.332;2023-08-31T09:21:52;16.90;99.90
24152;DHT22;12311;50.866;4.332;2023-08-31T09:24:18;16.90;99.90
24152;DHT22;12311;50.866;4.332;2023-08-31T09:26:45;17.00;99.90
24152;DHT22;12311;50.866;4.332;2023-08-31T09:29:14;17.20;99.90
24152;DHT22;12311;50.866;4.332;2023-08-31T09:31:44;17.30;99.90
24152;DHT22;12311;50.866;4.332;2023-08-31T09:34:11;17.50;99.90
24152;DHT22;12311;50.866;4.332;2023-08-31T09:36:37;17.80;99.90
24152;DHT22;12311;50.866;4.332;2023-08-31T09:39:05;17.90;99.90
24152;DHT22;12311;50.866;4.332;2023-08-31T09:41:31;18.00;99.90
24152;DHT22;12311;50.866;4.332;2023-08-31T09:44:18;17.70;99.90
24152;DHT22;12311;50.866;4.332;2023-08-31T09:46:44;17.90;99.90
24152;DHT22;12311;50.866;4.332;2023-08-31T09:49:13;18.20;99.90
24152;DHT22;12311;50.866;4.332;2023-08-31T09:51:43;18.30;99.90
24152;DHT22;12311;50.866;4.332;2023-08-31T09:54:10;18.30;99.90
24152;DHT22;12311;50.866;4.332;2023-08-31T09:56:41;18.50;99.90
24152;DHT22;12311;50.866;4.332;2023-08-31T09:59:08;18.60;99.90
24152;DHT22;12311;50.866;4.332;2023-08-31T10:01:34;18.90;99.90
24152;DHT22;12311;50.866;4.332;2023-08-31T10:04:00;19.20;99.90
24152;DHT22;12311;50.866;4.332;2023-08-31T10:06:27;19.40;99.90
24152;DHT22;12311;50.866;4.332;2023-08-31T10:08:54;19.40;99.90
24152;DHT22;12311;50.866;4.332;2023-08-31T10:11:21;19.40;99.90
24152;DHT22;12311;50.866;4.332;2023-08-31T10:13:49;19.60;99.90
24152;DHT22;12311;50.866;4.332;2023-08-31T10:16:14;19.70;99.90
24152;DHT22;12311;50.866;4.332;2023-08-31T10:18:41;19.60;99.90
24152;DHT22;12311;50.866;4.332;2023-08-31T10:21:07;19.60;99.90
24152;DHT22;12311;50.866;4.332;2023-08-31T10:23:33;19.50;99.90
24152;DHT22;12311;50.866;4.332;2023-08-31T10:26:01;19.70;99.90
24152;DHT22;12311;50.866;4.332;2023-08-31T10:28:29;19.90;99.90
24152;DHT22;12311;50.866;4.332;2023-08-31T10:31:01;20.10;99.90
24152;DHT22;12311;50.866;4.332;2023-08-31T10:33:40;20.10;99.90
24152;DHT22;12311;50.866;4.332;2023-08-31T10:36:45;20.20;99.90
24152;DHT22;12311;50.866;4.332;2023-08-31T10:39:18;20.30;99.90
24152;DHT22;12311;50.866;4.332;2023-08-31T10:41:55;20.10;99.90
24152;DHT22;12311;50.866;4.332;2023-08-31T10:44:23;19.80;99.90
24152;DHT22;12311;50.866;4.332;2023-08-31T10:46:50;19.70;99.90
24152;DHT22;12311;50.866;4.332;2023-08-31T10:49:20;19.60;99.90
24152;DHT22;12311;50.866;4.332;2023-08-31T10:52:00;19.70;99.90
24152;DHT22;12311;50.866;4.332;2023-08-31T10:54:40;20.20;99.90
24152;DHT22;12311;50.866;4.332;2023-08-31T10:57:06;20.60;99.90
24152;DHT22;12311;50.866;4.332;2023-08-31T10:59:52;20.60;99.90
24152;DHT22;12311;50.866;4.332;2023-08-31T11:02:27;20.90;99.90
24152;DHT22;12311;50.866;4.332;2023-08-31T11:05:32;20.50;99.90
24152;DHT22;12311;50.866;4.332;2023-08-31T11:07:58;20.30;99.90
24152;DHT22;12311;50.866;4.332;2023-08-31T11:10:25;20.20;99.90
24152;DHT22;12311;50.866;4.332;2023-08-31T11:12:53;20.20;99.90
24152;DHT22;12311;50.866;4.332;2023-08-31T11:15:24;20.30;99.90
24152;DHT22;12311;50.866;4.332;2023-08-31T11:17:50;20.20;99.90
24152;DHT22;12311;50.866;4.332;2023-08-31T11:20:18;20.60;99.90
24152;DHT22;12311;50.866;4.332;2023-08-31T11:22:49;21.10;99.90
24152;DHT22;12311;50.866;4.332;2023-08-31T11:25:16;21.20;99.90
24152;DHT22;12311;50.866;4.332;2023-08-31T11:27:53;21.30;99.90
24152;DHT22;12311;50.866;4.332;2023-08-31T11:30:18;21.10;99.90
24152;DHT22;12311;50.866;4.332;2023-08-31T11:32:51;20.90;99.90
24152;DHT22;12311;50.866;4.332;2023-08-31T11:35:18;20.50;99.90
24152;DHT22;12311;50.866;4.332;2023-08-31T11:37:44;20.60;99.90
24152;DHT22;12311;50.866;4.332;2023-08-31T11:40:11;20.70;99.90
24152;DHT22;12311;50.866;4.332;2023-08-31T11:42:40;20.60;99.90
24152;DHT22;12311;50.866;4.332;2023-08-31T11:45:06;20.30;99.90
24152;DHT22;12311;50.866;4.332;2023-08-31T11:47:32;20.20;99.90
24152;DHT22;12311;50.866;4.332;2023-08-31T11:49:59;19.90;99.90
24152;DHT22;12311;50.866;4.332;2023-08-31T11:52:27;19.60;99.90
24152;DHT22;12311;50.866;4.332;2023-08-31T11:54:53;19.40;99.90
24152;DHT22;12311;50.866;4.332;2023-08-31T11:57:25;19.30;99.90
24152;DHT22;12311;50.866;4.332;2023-08-31T11:59:51;19.40;99.90
24152;DHT22;12311;50.866;4.332;2023-08-31T12:02:19;19.60;99.90
24152;DHT22;12311;50.866;4.332;2023-08-31T12:04:45;19.60;99.90
24152;DHT22;12311;50.866;4.332;2023-08-31T12:07:12;19.60;99.90
24152;DHT22;12311;50.866;4.332;2023-08-31T12:09:41;19.80;99.90
24152;DHT22;12311;50.866;4.332;2023-08-31T12:12:07;20.00;99.90
24152;DHT22;12311;50.866;4.332;2023-08-31T12:14:33;20.20;99.90
24152;DHT22;12311;50.866;4.332;2023-08-31T12:17:05;20.40;99.90
24152;DHT22;12311;50.866;4.332;2023-08-31T12:19:31;20.20;99.90
24152;DHT22;12311;50.866;4.332;2023-08-31T12:21:57;19.80;99.90
24152;DHT22;12311;50.866;4.332;2023-08-31T12:24:23;19.80;99.90
24152;DHT22;12311;50.866;4.332;2023-08-31T12:26:50;19.80;99.90
24152;DHT22;12311;50.866;4.332;2023-08-31T12:29:16;19.70;99.90
24152;DHT22;12311;50.866;4.332;2023-08-31T12:31:41;19.70;99.90
24152;DHT22;12311;50.866;4.332;2023-08-31T12:34:09;19.80;99.90
24152;DHT22;12311;50.866;4.332;2023-08-31T12:36:35;19.70;99.90
24152;DHT22;12311;50.866;4.332;2023-08-31T12:39:04;19.80;99.90
24152;DHT22;12311;50.866;4.332;2023-08-31T12:41:33;20.10;99.90
24152;DHT22;12311;50.866;4.332;2023-08-31T12:43:58;20.00;99.90
24152;DHT22;12311;50.866;4.332;2023-08-31T12:46:24;20.10;99.90
24152;DHT22;12311;50.866;4.332;2023-08-31T12:48:51;20.00;99.90
24152;DHT22;12311;50.866;4.332;2023-08-31T12:51:18;20.10;99.90
24152;DHT22;12311;50.866;4.332;2023-08-31T12:53:44;20.10;99.90
24152;DHT22;12311;50.866;4.332;2023-08-31T12:56:10;20.10;99.90
24152;DHT22;12311;50.866;4.332;2023-08-31T12:58:36;20.00;99.90
24152;DHT22;12311;50.866;4.332;2023-08-31T13:01:01;20.00;99.90
24152;DHT22;12311;50.866;4.332;2023-08-31T13:03:27;20.10;99.90
24152;DHT22;12311;50.866;4.332;2023-08-31T13:05:54;20.00;99.90
24152;DHT22;12311;50.866;4.332;2023-08-31T13:08:20;20.30;99.90
24152;DHT22;12311;50.866;4.332;2023-08-31T13:10:52;20.30;99.90
24152;DHT22;12311;50.866;4.332;2023-08-31T13:13:19;20.00;99.90
24152;DHT22;12311;50.866;4.332;2023-08-31T13:15:48;19.80;99.90
24152;DHT22;12311;50.866;4.332;2023-08-31T13:18:14;20.10;99.90
24152;DHT22;12311;50.866;4.332;2023-08-31T13:20:40;20.10;99.90
24152;DHT22;12311;50.866;4.332;2023-08-31T13:23:07;20.20;99.90
24152;DHT22;12311;50.866;4.332;2023-08-31T13:25:33;20.20;99.90
24152;DHT22;12311;50.866;4.332;2023-08-31T13:27:58;20.10;99.90
24152;DHT22;12311;50.866;4.332;2023-08-31T13:30:24;20.50;99.90
24152;DHT22;12311;50.866;4.332;2023-08-31T13:32:50;20.70;99.90
24152;DHT22;12311;50.866;4.332;2023-08-31T13:35:16;20.90;99.90
24152;DHT22;12311;50.866;4.332;2023-08-31T13:37:42;21.10;99.90
24152;DHT22;12311;50.866;4.332;2023-08-31T13:40:08;21.30;99.90
24152;DHT22;12311;50.866;4.332;2023-08-31T13:42:35;21.00;99.90
24152;DHT22;12311;50.866;4.332;2023-08-31T13:45:06;21.00;99.90
24152;DHT22;12311;50.866;4.332;2023-08-31T13:47:31;20.60;99.90
24152;DHT22;12311;50.866;4.332;2023-08-31T13:49:57;20.20;99.90
24152;DHT22;12311;50.866;4.332;2023-08-31T13:52:23;20.10;99.90
24152;DHT22;12311;50.866;4.332;2023-08-31T13:54:50;20.40;99.90
24152;DHT22;12311;50.866;4.332;2023-08-31T13:57:16;20.80;99.90
24152;DHT22;12311;50.866;4.332;2023-08-31T13:59:43;21.00;99.90
24152;DHT22;12311;50.866;4.332;2023-08-31T14:02:09;20.90;99.90
24152;DHT22;12311;50.866;4.332;2023-08-31T14:04:35;20.60;99.90
24152;DHT22;12311;50.866;4.332;2023-08-31T14:07:00;20.40;99.90
24152;DHT22;12311;50.866;4.332;2023-08-31T14:09:27;20.20;99.90
24152;DHT22;12311;50.866;4.332;2023-08-31T14:11:53;20.40;99.90
24152;DHT22;12311;50.866;4.332;2023-08-31T14:14:20;20.40;99.90
24152;DHT22;12311;50.866;4.332;2023-08-31T14:16:47;20.50;99.90
24152;DHT22;12311;50.866;4.332;2023-08-31T14:19:13;20.50;99.90
24152;DHT22;12311;50.866;4.332;2023-08-31T14:21:39;20.50;99.90
24152;DHT22;12311;50.866;4.332;2023-08-31T14:24:05;20.40;99.90
24152;DHT22;12311;50.866;4.332;2023-08-31T14:26:31;20.30;99.90
24152;DHT22;12311;50.866;4.332;2023-08-31T14:28:57;20.20;99.90
24152;DHT22;12311;50.866;4.332;2023-08-31T14:31:23;20.30;99.90
24152;DHT22;12311;50.866;4.332;2023-08-31T14:33:48;20.20;99.90
24152;DHT22;12311;50.866;4.332;2023-08-31T14:36:15;20.00;99.90
24152;DHT22;12311;50.866;4.332;2023-08-31T14:38:41;19.90;99.90
24152;DHT22;12311;50.866;4.332;2023-08-31T14:41:07;19.90;99.90
24152;DHT22;12311;50.866;4.332;2023-08-31T14:43:33;19.90;99.90
24152;DHT22;12311;50.866;4.332;2023-08-31T14:45:59;20.10;99.90
24152;DHT22;12311;50.866;4.332;2023-08-31T14:48:29;20.20;99.90
24152;DHT22;12311;50.866;4.332;2023-08-31T14:50:55;20.20;99.90
24152;DHT22;12311;50.866;4.332;2023-08-31T14:53:24;20.00;99.90
24152;DHT22;12311;50.866;4.332;2023-08-31T14:55:50;20.30;99.90
24152;DHT22;12311;50.866;4.332;2023-08-31T14:58:16;20.30;99.90
24152;DHT22;12311;50.866;4.332;2023-08-31T15:00:42;20.20;99.90
24152;DHT22;12311;50.866;4.332;2023-08-31T15:03:07;20.10;99.90
24152;DHT22;12311;50.866;4.332;2023-08-31T15:05:34;20.20;99.90
24152;DHT22;12311;50.866;4.332;2023-08-31T15:08:01;20.30;99.90
24152;DHT22;12311;50.866;4.332;2023-08-31T15:10:29;20.50;99.90
24152;DHT22;12311;50.866;4.332;2023-08-31T15:12:54;20.30;99.90
24152;DHT22;12311;50.866;4.332;2023-08-31T15:15:27;20.30;99.90
24152;DHT22;12311;50.866;4.332;2023-08-31T15:17:52;20.10;99.90
24152;DHT22;12311;50.866;4.332;2023-08-31T15:20:18;19.90;99.90
24152;DHT22;12311;50.866;4.332;2023-08-31T15:22:44;19.80;99.90
24152;DHT22;12311;50.866;4.332;2023-08-31T15:25:09;19.80;99.90
24152;DHT22;12311;50.866;4.332;2023-08-31T15:27:35;19.60;99.90
24152;DHT22;12311;50.866;4.332;2023-08-31T15:30:01;19.40;99.90
24152;DHT22;12311;50.866;4.332;2023-08-31T15:32:28;19.50;99.90
24152;DHT22;12311;50.866;4.332;2023-08-31T15:34:54;19.30;99.90
24152;DHT22;12311;50.866;4.332;2023-08-31T15:37:19;19.30;99.90